createdAt,value
2019-01-02T00:00:04.530Z,4.33
2019-01-02T00:02:31.993Z,3.73
2019-01-02T00:04:59.385Z,4.77
2019-01-02T00:07:26.835Z,4.87
2019-01-02T00:09:54.245Z,4.90
2019-01-02T00:12:21.641Z,3.80
2019-01-02T00:14:49.089Z,4.10
2019-01-02T00:17:16.559Z,5.03
2019-01-02T00:19:43.955Z,4.57
2019-01-02T00:22:11.391Z,4.60
2019-01-02T00:24:38.787Z,3.90
2019-01-02T00:27:06.185Z,3.87
2019-01-02T00:29:33.624Z,4.20
2019-01-02T00:32:01.040Z,3.83
2019-01-02T00:34:28.561Z,3.90
2019-01-02T00:36:55.960Z,3.90
2019-01-02T00:39:23.363Z,4.40
2019-01-02T00:41:50.805Z,3.50
2019-01-02T00:44:18.229Z,4.30
2019-01-02T00:46:45.673Z,3.87
2019-01-02T00:49:13.081Z,3.80
2019-01-02T00:51:40.492Z,4.00
2019-01-02T00:54:07.913Z,3.80
2019-01-02T00:56:35.318Z,3.73
2019-01-02T00:59:02.753Z,3.70
2019-01-02T01:01:30.148Z,3.50
2019-01-02T01:03:57.571Z,4.20
2019-01-02T01:06:24.968Z,4.13
2019-01-02T01:08:52.398Z,3.70
2019-01-02T01:11:19.836Z,3.73
2019-01-02T01:13:47.282Z,3.77
2019-01-02T01:16:14.684Z,3.20
2019-01-02T01:18:42.168Z,3.70
2019-01-02T01:21:09.564Z,4.20
2019-01-02T01:23:37.002Z,3.80
2019-01-02T01:26:04.438Z,4.10
2019-01-02T01:28:31.871Z,4.40
2019-01-02T01:30:59.275Z,4.17
2019-01-02T01:33:26.689Z,3.00
2019-01-02T01:35:54.091Z,3.67
2019-01-02T01:38:21.507Z,3.90
2019-01-02T01:40:48.904Z,3.43
2019-01-02T01:43:16.330Z,3.50
2019-01-02T01:45:43.744Z,4.20
2019-01-02T01:48:11.141Z,4.17
2019-01-02T01:50:38.604Z,3.73
2019-01-02T01:53:05.999Z,4.07
2019-01-02T01:55:33.419Z,3.10
2019-01-02T01:58:00.877Z,3.17
2019-01-02T02:00:28.293Z,3.57
2019-01-02T02:02:55.691Z,3.87
2019-01-02T02:05:23.108Z,3.43
2019-01-02T02:07:50.498Z,3.20
2019-01-02T02:10:17.913Z,3.13
2019-01-02T02:12:45.328Z,3.10
2019-01-02T02:15:12.758Z,3.20
2019-01-02T02:17:41.177Z,2.50
2019-01-02T02:20:07.576Z,3.90
2019-01-02T02:22:34.971Z,3.27
2019-01-02T02:25:02.403Z,3.50
2019-01-02T02:27:29.801Z,3.57
2019-01-02T02:29:57.269Z,2.70
2019-01-02T02:32:24.664Z,3.87
2019-01-02T02:34:52.075Z,2.87
2019-01-02T02:37:19.485Z,3.43
2019-01-02T02:39:46.915Z,3.30
2019-01-02T02:42:14.324Z,3.73
2019-01-02T02:44:41.711Z,3.30
2019-01-02T02:47:09.136Z,3.33
2019-01-02T02:49:36.552Z,3.23
2019-01-02T02:52:03.978Z,3.10
2019-01-02T02:54:31.480Z,3.10
2019-01-02T02:56:58.921Z,3.30
2019-01-02T02:59:26.322Z,3.70
2019-01-02T03:01:53.718Z,3.33
2019-01-02T03:04:21.142Z,3.10
2019-01-02T03:06:52.226Z,3.20
2019-01-02T03:09:16.286Z,2.93
2019-01-02T03:11:43.679Z,3.40
2019-01-02T03:14:11.099Z,4.03
2019-01-02T03:16:38.533Z,3.93
2019-01-02T03:19:05.943Z,3.50
2019-01-02T03:21:33.367Z,3.10
2019-01-02T03:24:00.787Z,3.73
2019-01-02T03:26:28.221Z,4.03
2019-01-02T03:28:55.649Z,4.00
2019-01-02T03:31:23.041Z,4.00
2019-01-02T03:33:50.450Z,3.17
2019-01-02T03:36:17.868Z,3.80
2019-01-02T03:38:45.260Z,3.33
2019-01-02T03:41:12.688Z,3.33
2019-01-02T03:43:40.080Z,3.57
2019-01-02T03:46:07.509Z,2.90
2019-01-02T03:48:34.905Z,4.33
2019-01-02T03:51:02.308Z,3.13
2019-01-02T03:53:29.714Z,3.20
2019-01-02T03:55:57.120Z,3.20
2019-01-02T03:58:24.548Z,3.30
2019-01-02T04:00:51.946Z,3.85
2019-01-02T04:03:19.400Z,3.37
2019-01-02T04:05:46.764Z,3.93
2019-01-02T04:08:14.159Z,3.70
2019-01-02T04:10:41.588Z,3.50
2019-01-02T04:13:08.980Z,3.67
2019-01-02T04:15:36.395Z,4.53
2019-01-02T04:18:03.807Z,3.47
2019-01-02T04:20:31.223Z,4.03
2019-01-02T04:22:58.622Z,4.17
2019-01-02T04:25:26.041Z,3.47
2019-01-02T04:27:53.446Z,3.17
2019-01-02T04:30:20.877Z,4.30
2019-01-02T04:32:48.282Z,4.43
2019-01-02T04:35:15.696Z,3.47
2019-01-02T04:37:43.136Z,3.87
2019-01-02T04:40:10.589Z,4.40
2019-01-02T04:42:37.959Z,3.60
2019-01-02T04:45:05.371Z,2.97
2019-01-02T04:47:32.787Z,3.67
2019-01-02T04:50:00.210Z,3.53
2019-01-02T04:52:27.603Z,3.70
2019-01-02T04:54:55.004Z,3.80
2019-01-02T04:57:22.427Z,3.97
2019-01-02T04:59:49.849Z,3.60
2019-01-02T05:02:17.279Z,3.23
2019-01-02T05:04:44.678Z,4.40
2019-01-02T05:07:12.082Z,3.63
2019-01-02T05:09:39.521Z,3.80
2019-01-02T05:12:06.859Z,4.37
2019-01-02T05:14:34.283Z,3.60
2019-01-02T05:17:01.675Z,4.03
2019-01-02T05:19:29.089Z,3.80
2019-01-02T05:21:56.495Z,3.37
2019-01-02T05:24:23.917Z,4.30
2019-01-02T05:26:51.324Z,4.17
2019-01-02T05:29:18.734Z,3.60
2019-01-02T05:31:46.134Z,4.50
2019-01-02T05:34:13.548Z,4.27
2019-01-02T05:36:40.952Z,3.60
2019-01-02T05:39:08.362Z,3.83
2019-01-02T05:41:35.782Z,3.17
2019-01-02T05:44:03.213Z,4.37
2019-01-02T05:46:30.632Z,3.83
2019-01-02T05:48:58.050Z,3.53
2019-01-02T05:51:25.448Z,3.77
2019-01-02T05:53:52.871Z,3.33
2019-01-02T05:56:20.271Z,3.47
2019-01-02T05:58:47.701Z,3.77
2019-01-02T06:01:15.122Z,3.33
2019-01-02T06:03:42.533Z,5.13
2019-01-02T06:06:09.958Z,3.57
2019-01-02T06:08:37.355Z,3.70
2019-01-02T06:11:04.792Z,4.23
2019-01-02T06:13:32.212Z,3.83
2019-01-02T06:15:59.613Z,3.53
2019-01-02T06:18:27.050Z,4.13
2019-01-02T06:20:54.444Z,4.50
2019-01-02T06:23:21.870Z,4.47
2019-01-02T06:25:49.293Z,3.63
2019-01-02T06:28:16.691Z,4.70
2019-01-02T06:30:44.108Z,3.37
2019-01-02T06:33:11.516Z,3.97
2019-01-02T06:35:38.934Z,4.33
2019-01-02T06:38:06.350Z,3.97
2019-01-02T06:40:33.738Z,3.53
2019-01-02T06:43:01.166Z,3.77
2019-01-02T06:45:28.555Z,4.17
2019-01-02T06:47:55.967Z,4.40
2019-01-02T06:50:23.373Z,4.03
2019-01-02T06:52:50.878Z,4.20
2019-01-02T06:55:18.273Z,4.00
2019-01-02T06:57:45.716Z,3.90
2019-01-02T07:00:13.123Z,3.83
2019-01-02T07:02:40.520Z,3.97
2019-01-02T07:05:07.920Z,4.87
2019-01-02T07:07:35.363Z,4.57
2019-01-02T07:10:02.794Z,4.47
2019-01-02T07:12:30.224Z,4.07
2019-01-02T07:14:57.626Z,3.40
2019-01-02T07:17:25.021Z,3.53
2019-01-02T07:19:52.456Z,4.07
2019-01-02T07:22:19.848Z,3.97
2019-01-02T07:24:47.261Z,3.77
2019-01-02T07:27:14.654Z,3.80
2019-01-02T07:29:42.118Z,4.37
2019-01-02T07:32:09.478Z,4.30
2019-01-02T07:34:45.932Z,3.20
2019-01-02T07:37:24.591Z,3.93
2019-01-02T07:40:12.504Z,3.93
2019-01-02T07:42:57.935Z,4.23
2019-01-02T07:45:28.348Z,4.10
2019-01-02T07:48:10.508Z,3.20
2019-01-02T07:50:44.107Z,3.80
2019-01-02T07:53:26.535Z,4.13
2019-01-02T07:56:12.307Z,4.27
2019-01-02T07:58:39.728Z,4.10
2019-01-02T08:01:31.081Z,3.67
2019-01-02T08:04:10.657Z,4.17
2019-01-02T08:07:02.369Z,3.07
2019-01-02T08:09:35.558Z,4.27
2019-01-02T08:12:11.602Z,4.27
2019-01-02T08:14:42.061Z,4.17
2019-01-02T08:17:12.282Z,4.77
2019-01-02T08:19:42.548Z,4.73
2019-01-02T08:22:31.469Z,4.03
2019-01-02T08:25:04.930Z,3.83
2019-01-02T08:27:38.200Z,4.47
2019-01-02T08:30:27.125Z,3.37
2019-01-02T08:33:06.274Z,4.47
2019-01-02T08:35:48.891Z,3.80
2019-01-02T08:38:25.531Z,3.53
2019-01-02T08:41:05.206Z,4.13
2019-01-02T08:43:41.181Z,3.50
2019-01-02T08:46:29.446Z,3.97
2019-01-02T08:49:08.820Z,3.77
2019-01-02T08:51:36.216Z,4.10
2019-01-02T08:54:33.920Z,4.07
2019-01-02T08:57:22.196Z,4.00
2019-01-02T09:00:07.422Z,4.23
2019-01-02T09:02:46.525Z,4.27
2019-01-02T09:05:16.645Z,3.50
2019-01-02T09:08:08.867Z,4.13
2019-01-02T09:10:48.309Z,4.33
2019-01-02T09:13:27.971Z,3.30
2019-01-02T09:16:00.635Z,3.53
2019-01-02T09:18:46.605Z,4.37
2019-01-02T09:21:34.780Z,4.53
2019-01-02T09:24:11.060Z,4.50
2019-01-02T09:26:43.985Z,5.67
2019-01-02T09:29:32.327Z,3.23
2019-01-02T09:32:02.744Z,4.30
2019-01-02T09:34:38.908Z,3.93
2019-01-02T09:37:12.101Z,3.37
2019-01-02T09:39:39.530Z,3.50
2019-01-02T09:42:30.488Z,3.83
2019-01-02T09:45:00.789Z,3.60
2019-01-02T09:47:49.323Z,4.23
2019-01-02T09:50:28.355Z,3.30
2019-01-02T09:53:29.550Z,3.50
2019-01-02T09:56:05.807Z,3.50
2019-01-02T09:58:35.967Z,3.70
2019-01-02T10:01:06.134Z,3.47
2019-01-02T10:03:42.065Z,3.73
2019-01-02T10:06:24.452Z,3.37
2019-01-02T10:09:24.974Z,3.83
2019-01-02T10:11:58.098Z,4.73
2019-01-02T10:14:34.453Z,3.60
2019-01-02T10:17:25.739Z,4.00
2019-01-02T10:20:04.737Z,3.50
2019-01-02T10:22:43.657Z,4.43
2019-01-02T10:25:13.937Z,3.57
2019-01-02T10:27:56.490Z,3.17
2019-01-02T10:30:26.297Z,4.17
2019-01-02T10:32:59.968Z,3.53
2019-01-02T10:35:45.026Z,3.63
2019-01-02T10:38:12.455Z,3.43
2019-01-02T10:41:17.084Z,3.13
2019-01-02T10:43:44.524Z,2.80
2019-01-02T10:46:17.770Z,3.73
2019-01-02T10:49:12.587Z,3.73
2019-01-02T10:52:09.947Z,3.63
2019-01-02T10:54:52.197Z,3.37
2019-01-02T10:57:22.061Z,3.67
2019-01-02T10:59:55.364Z,3.37
2019-01-02T11:02:22.767Z,4.23
2019-01-02T11:05:08.535Z,3.67
2019-01-02T11:07:54.181Z,3.73
2019-01-02T11:10:33.099Z,4.33
2019-01-02T11:13:15.331Z,3.80
2019-01-02T11:15:45.220Z,4.10
2019-01-02T11:18:18.799Z,4.25
2019-01-02T11:21:10.601Z,3.80
2019-01-02T11:23:56.351Z,3.53
2019-01-02T11:27:00.474Z,5.27
2019-01-02T11:30:00.907Z,4.43
2019-01-02T11:33:01.396Z,3.63
2019-01-02T11:35:37.864Z,4.03
2019-01-02T11:38:07.836Z,4.20
2019-01-02T11:40:59.386Z,3.57
2019-01-02T11:43:41.394Z,3.90
2019-01-02T11:46:08.824Z,4.10
2019-01-02T11:48:36.239Z,4.07
2019-01-02T11:51:04.229Z,3.63
2019-01-02T11:53:31.086Z,3.60
2019-01-02T11:55:58.473Z,4.07
2019-01-02T11:58:25.903Z,3.77
2019-01-02T12:00:53.325Z,4.57
2019-01-02T12:03:20.775Z,3.50
2019-01-02T12:05:48.176Z,4.73
2019-01-02T12:08:15.609Z,3.37
2019-01-02T12:10:43.007Z,3.83
2019-01-02T12:13:10.445Z,3.70
2019-01-02T12:15:37.840Z,3.43
2019-01-02T12:18:05.287Z,3.53
2019-01-02T12:20:32.708Z,3.37
2019-01-02T12:23:00.145Z,3.60
2019-01-02T12:25:27.578Z,3.40
2019-01-02T12:27:54.986Z,3.90
2019-01-02T12:30:22.417Z,3.60
2019-01-02T12:32:49.820Z,3.83
2019-01-02T12:35:17.273Z,3.40
2019-01-02T12:37:44.669Z,3.40
2019-01-02T12:40:12.083Z,3.30
2019-01-02T12:42:39.543Z,3.17
2019-01-02T12:45:09.303Z,4.00
2019-01-02T12:47:36.725Z,3.67
2019-01-02T12:50:04.150Z,3.50
2019-01-02T12:52:31.575Z,3.50
2019-01-02T12:54:59.008Z,4.10
2019-01-02T12:57:26.434Z,3.77
2019-01-02T12:59:53.846Z,4.23
2019-01-02T13:02:42.386Z,3.73
2019-01-02T13:05:12.779Z,3.67
2019-01-02T13:07:48.348Z,3.10
2019-01-02T13:10:18.573Z,3.70
2019-01-02T13:13:03.605Z,4.20
2019-01-02T13:15:42.681Z,4.40
2019-01-02T13:18:21.896Z,4.40
2019-01-02T13:21:13.262Z,4.37
2019-01-02T13:23:43.153Z,3.83
2019-01-02T13:26:13.032Z,3.63
2019-01-02T13:28:43.113Z,3.93
2019-01-02T13:31:47.271Z,4.07
2019-01-02T13:34:17.244Z,3.60
2019-01-02T13:36:50.768Z,3.70
2019-01-02T13:39:20.942Z,3.70
2019-01-02T13:41:53.581Z,4.20
2019-01-02T13:44:39.619Z,5.00
2019-01-02T13:47:21.841Z,4.10
2019-01-02T13:49:49.245Z,4.67
2019-01-02T13:52:16.688Z,4.77
2019-01-02T13:54:44.105Z,4.20
2019-01-02T13:57:11.508Z,4.17
2019-01-02T13:59:38.941Z,5.03
2019-01-02T14:02:06.350Z,3.83
2019-01-02T14:04:33.787Z,4.70
2019-01-02T14:07:01.174Z,4.20
2019-01-02T14:09:28.608Z,4.17
2019-01-02T14:11:56.024Z,5.03
2019-01-02T14:14:23.482Z,4.40
2019-01-02T14:16:50.886Z,4.43
2019-01-02T14:19:18.281Z,3.57
2019-01-02T14:21:45.749Z,3.90
2019-01-02T14:24:13.207Z,4.27
2019-01-02T14:26:40.598Z,4.63
2019-01-02T14:29:08.037Z,4.63
2019-01-02T14:31:38.642Z,4.43
2019-01-02T14:34:02.867Z,3.47
2019-01-02T14:36:30.297Z,3.90
2019-01-02T14:38:57.713Z,4.70
2019-01-02T14:41:25.254Z,4.17
2019-01-02T14:43:52.659Z,4.33
2019-01-02T14:46:20.077Z,3.80
2019-01-02T14:48:47.504Z,4.23
2019-01-02T14:51:14.917Z,4.90
2019-01-02T14:53:42.347Z,4.40
2019-01-02T14:56:09.759Z,4.40
2019-01-02T14:58:37.202Z,4.47
2019-01-02T15:01:04.613Z,4.50
2019-01-02T15:03:32.013Z,3.97
2019-01-02T15:05:59.452Z,4.40
2019-01-02T15:08:26.875Z,4.17
2019-01-02T15:10:54.316Z,4.70
2019-01-02T15:13:21.720Z,4.23
2019-01-02T15:15:49.154Z,4.13
2019-01-02T15:18:16.592Z,4.53
2019-01-02T15:20:44.023Z,4.40
2019-01-02T15:23:11.441Z,4.10
2019-01-02T15:25:38.879Z,7.63
2019-01-02T15:28:06.354Z,4.33
2019-01-02T15:30:33.738Z,4.20
2019-01-02T15:33:01.167Z,4.33
2019-01-02T15:35:28.567Z,3.93
2019-01-02T15:37:56.012Z,3.77
2019-01-02T15:40:23.417Z,4.03
2019-01-02T15:42:50.819Z,4.07
2019-01-02T15:45:18.274Z,3.83
2019-01-02T15:47:45.702Z,5.83
2019-01-02T15:50:13.101Z,4.50
2019-01-02T15:52:40.533Z,4.17
2019-01-02T15:55:07.972Z,4.10
2019-01-02T15:57:35.358Z,5.10
2019-01-02T16:00:02.821Z,4.83
2019-01-02T16:02:30.228Z,4.97
2019-01-02T16:04:57.636Z,5.13
2019-01-02T16:07:25.072Z,4.43
2019-01-02T16:09:52.483Z,4.60
2019-01-02T16:12:19.937Z,4.10
2019-01-02T16:14:47.377Z,4.83
2019-01-02T16:17:14.811Z,4.30
2019-01-02T16:19:42.226Z,5.30
2019-01-02T16:22:09.663Z,4.53
2019-01-02T16:24:37.081Z,5.43
2019-01-02T16:27:04.517Z,3.97
2019-01-02T16:29:31.926Z,4.90
2019-01-02T16:31:59.355Z,6.10
2019-01-02T16:34:26.772Z,3.93
2019-01-02T16:36:54.205Z,4.67
2019-01-02T16:39:21.639Z,4.47
2019-01-02T16:41:49.043Z,5.27
2019-01-02T16:44:16.491Z,4.40
2019-01-02T16:46:43.883Z,5.03
2019-01-02T16:49:11.320Z,5.93
2019-01-02T16:51:38.728Z,5.03
2019-01-02T16:54:06.169Z,4.27
2019-01-02T16:56:33.597Z,4.93
2019-01-02T16:59:01.025Z,4.83
2019-01-02T17:01:28.432Z,5.03
2019-01-02T17:03:55.860Z,4.47
2019-01-02T17:06:23.300Z,4.00
2019-01-02T17:08:50.706Z,4.70
2019-01-02T17:11:18.120Z,4.53
2019-01-02T17:13:45.529Z,4.73
2019-01-02T17:16:12.935Z,4.80
2019-01-02T17:18:40.354Z,5.03
2019-01-02T17:21:07.781Z,4.47
2019-01-02T17:23:35.199Z,5.47
2019-01-02T17:26:02.633Z,7.60
2019-01-02T17:28:30.044Z,4.80
2019-01-02T17:30:57.471Z,5.60
2019-01-02T17:33:24.902Z,4.20
2019-01-02T17:35:52.356Z,4.90
2019-01-02T17:38:19.743Z,5.47
2019-01-02T17:40:47.133Z,5.80
2019-01-02T17:43:14.590Z,5.67
2019-01-02T17:45:42.015Z,6.60
2019-01-02T17:48:09.426Z,5.20
2019-01-02T17:50:36.825Z,5.47
2019-01-02T17:53:04.249Z,6.67
2019-01-02T17:55:31.652Z,5.60
2019-01-02T17:57:59.084Z,5.40
2019-01-02T18:00:26.492Z,5.07
2019-01-02T18:02:53.922Z,5.80
2019-01-02T18:05:21.357Z,5.73
2019-01-02T18:07:48.780Z,5.43
2019-01-02T18:10:16.178Z,5.20
2019-01-02T18:12:43.685Z,6.23
2019-01-02T18:15:11.099Z,5.93
2019-01-02T18:17:38.506Z,5.37
2019-01-02T18:20:05.938Z,5.23
2019-01-02T18:22:33.336Z,5.67
2019-01-02T18:25:00.761Z,5.50
2019-01-02T18:27:28.156Z,6.03
2019-01-02T18:29:55.569Z,5.60
2019-01-02T18:32:22.995Z,5.73
2019-01-02T18:34:50.408Z,6.23
2019-01-02T18:37:17.806Z,5.20
2019-01-02T18:39:45.280Z,5.60
2019-01-02T18:42:12.728Z,5.57
2019-01-02T18:44:40.125Z,5.43
2019-01-02T18:47:07.567Z,5.20
2019-01-02T18:49:35.005Z,7.27
2019-01-02T18:52:02.425Z,5.97
2019-01-02T18:54:29.874Z,7.00
2019-01-02T18:56:57.338Z,5.37
2019-01-02T18:59:24.750Z,6.00
2019-01-02T19:01:52.172Z,4.93
2019-01-02T19:04:19.614Z,5.20
2019-01-02T19:06:47.143Z,6.20
2019-01-02T19:09:14.597Z,5.40
2019-01-02T19:11:41.966Z,5.60
2019-01-02T19:14:09.406Z,5.53
2019-01-02T19:16:36.863Z,5.80
2019-01-02T19:19:04.274Z,5.53
2019-01-02T19:21:31.692Z,5.43
2019-01-02T19:23:59.131Z,6.03
2019-01-02T19:26:26.579Z,5.77
2019-01-02T19:28:53.993Z,5.63
2019-01-02T19:31:21.498Z,6.23
2019-01-02T19:33:49.656Z,5.90
2019-01-02T19:36:16.330Z,6.23
2019-01-02T19:38:43.719Z,6.10
2019-01-02T19:41:11.152Z,5.03
2019-01-02T19:43:38.564Z,6.57
2019-01-02T19:46:06.000Z,6.60
2019-01-02T19:48:33.422Z,6.40
2019-01-02T19:51:00.859Z,6.50
2019-01-02T19:53:28.313Z,6.67
2019-01-02T19:55:55.667Z,6.23
2019-01-02T19:58:23.087Z,6.53
2019-01-02T20:00:50.494Z,6.10
2019-01-02T20:03:17.942Z,6.10
2019-01-02T20:05:45.348Z,6.30
2019-01-02T20:08:12.751Z,6.53
2019-01-02T20:10:40.170Z,6.17
2019-01-02T20:13:07.568Z,6.93
2019-01-02T20:15:35.014Z,6.07
2019-01-02T20:18:02.447Z,6.73
2019-01-02T20:20:29.817Z,6.20
2019-01-02T20:22:57.237Z,6.20
2019-01-02T20:25:24.673Z,6.40
2019-01-02T20:27:52.101Z,5.60
2019-01-02T20:30:19.527Z,6.20
2019-01-02T20:32:46.940Z,6.13
2019-01-02T20:35:14.339Z,6.13
2019-01-02T20:37:41.747Z,6.03
2019-01-02T20:40:09.183Z,6.47
2019-01-02T20:42:36.579Z,6.00
2019-01-02T20:45:04.007Z,6.70
2019-01-02T20:47:31.412Z,6.20
2019-01-02T20:49:58.897Z,6.53
2019-01-02T20:52:26.292Z,5.73
2019-01-02T20:54:53.729Z,6.57
2019-01-02T20:57:21.115Z,6.30
2019-01-02T20:59:48.581Z,5.67
2019-01-02T21:02:15.951Z,6.17
2019-01-02T21:04:43.366Z,6.40
2019-01-02T21:07:10.801Z,5.77
2019-01-02T21:09:38.207Z,5.53
2019-01-02T21:12:05.643Z,5.77
2019-01-02T21:14:33.064Z,6.40
2019-01-02T21:17:00.473Z,5.60
2019-01-02T21:19:27.946Z,6.20
2019-01-02T21:21:55.389Z,5.67
2019-01-02T21:24:22.877Z,5.53
2019-01-02T21:26:50.273Z,5.67
2019-01-02T21:29:17.768Z,6.27
2019-01-02T21:31:45.154Z,5.97
2019-01-02T21:34:12.558Z,5.77
2019-01-02T21:36:40.053Z,6.03
2019-01-02T21:39:08.045Z,6.37
2019-01-02T21:41:34.867Z,5.53
2019-01-02T21:44:02.270Z,5.67
2019-01-02T21:46:29.721Z,5.30
2019-01-02T21:48:57.145Z,6.13
2019-01-02T21:51:24.573Z,6.80
2019-01-02T21:53:51.971Z,6.30
2019-01-02T21:56:19.408Z,6.47
2019-01-02T21:58:46.815Z,5.67
2019-01-02T22:01:14.238Z,5.90
2019-01-02T22:03:41.697Z,6.33
2019-01-02T22:06:09.165Z,5.90
2019-01-02T22:08:36.580Z,6.67
2019-01-02T22:11:04.058Z,6.67
2019-01-02T22:13:31.549Z,7.13
2019-01-02T22:15:58.928Z,6.60
2019-01-02T22:18:26.365Z,6.47
2019-01-02T22:20:53.788Z,6.70
2019-01-02T22:23:22.152Z,7.33
2019-01-02T22:25:48.679Z,7.77
2019-01-02T22:28:16.087Z,6.97
2019-01-02T22:30:43.531Z,7.30
2019-01-02T22:33:10.978Z,8.00
2019-01-02T22:35:38.405Z,7.73
2019-01-02T22:38:05.837Z,7.13
2019-01-02T22:40:33.269Z,7.57
2019-01-02T22:43:00.661Z,6.87
2019-01-02T22:45:28.092Z,7.53
2019-01-02T22:47:55.499Z,8.43
2019-01-02T22:50:22.924Z,7.87
2019-01-02T22:52:50.326Z,7.50
2019-01-02T22:55:17.746Z,8.20
2019-01-02T22:57:45.145Z,8.07
2019-01-02T23:00:12.588Z,7.10
2019-01-02T23:02:39.986Z,7.83
2019-01-02T23:05:07.393Z,7.10
2019-01-02T23:07:37.819Z,7.30
2019-01-02T23:10:05.223Z,8.13
2019-01-02T23:12:32.641Z,7.60
2019-01-02T23:15:18.088Z,7.40
2019-01-02T23:17:51.163Z,8.10
2019-01-02T23:20:18.596Z,6.97
2019-01-02T23:23:04.416Z,6.33
2019-01-02T23:25:37.658Z,7.17
2019-01-02T23:28:17.354Z,6.57
2019-01-02T23:30:44.778Z,6.93
2019-01-02T23:33:24.013Z,7.00
2019-01-02T23:36:09.743Z,6.97
2019-01-02T23:38:43.101Z,7.43
2019-01-02T23:41:22.397Z,7.40
2019-01-02T23:44:08.235Z,7.27
2019-01-02T23:46:54.051Z,7.43
2019-01-02T23:49:30.226Z,6.80
2019-01-02T23:51:57.620Z,7.07
2019-01-02T23:54:43.170Z,6.73
2019-01-02T23:57:10.573Z,6.40
2019-01-02T23:59:37.991Z,6.30
